createdAt,value
2023-04-24T00:01:00.017Z,6.90
2023-04-24T00:03:29.241Z,6.72
2023-04-24T00:05:57.813Z,6.91
2023-04-24T00:08:25.771Z,6.95
2023-04-24T00:10:54.251Z,6.90
2023-04-24T00:13:22.263Z,6.71
2023-04-24T00:15:51.773Z,7.09
2023-04-24T00:18:19.900Z,6.88
2023-04-24T00:20:48.851Z,7.04
2023-04-24T00:23:16.769Z,7.14
2023-04-24T00:25:44.592Z,7.22
2023-04-24T00:28:12.840Z,7.25
2023-04-24T00:30:40.766Z,7.24
2023-04-24T00:33:10.628Z,7.12
2023-04-24T00:35:38.769Z,7.09
2023-04-24T00:38:06.771Z,7.02
2023-04-24T00:40:34.884Z,6.90
2023-04-24T00:43:03.398Z,6.87
2023-04-24T00:45:32.356Z,6.86
2023-04-24T00:48:00.547Z,6.77
2023-04-24T00:50:31.604Z,6.77
2023-04-24T00:52:59.700Z,6.94
2023-04-24T00:55:28.039Z,6.97
2023-04-24T00:57:56.420Z,7.09
2023-04-24T01:00:24.846Z,7.09
2023-04-24T01:02:54.326Z,7.10
2023-04-24T01:05:22.536Z,7.07
2023-04-24T01:07:52.014Z,7.06
2023-04-24T01:10:21.364Z,7.09
2023-04-24T01:12:49.404Z,7.08
2023-04-24T01:15:17.555Z,7.10
2023-04-24T01:17:46.169Z,7.10
2023-04-24T01:20:14.921Z,7.10
2023-04-24T01:22:44.457Z,7.11
2023-04-24T01:25:12.904Z,7.08
2023-04-24T01:27:40.981Z,7.09
2023-04-24T01:30:10.685Z,7.06
2023-04-24T01:32:39.197Z,6.95
2023-04-24T01:35:09.172Z,7.06
2023-04-24T01:37:38.406Z,7.08
2023-04-24T01:40:09.426Z,7.10
2023-04-24T01:42:38.065Z,7.12
2023-04-24T01:45:07.583Z,7.13
2023-04-24T01:47:35.599Z,7.11
2023-04-24T01:50:03.618Z,7.07
2023-04-24T01:52:32.335Z,7.00
2023-04-24T01:55:02.331Z,6.95
2023-04-24T01:57:32.555Z,6.92
2023-04-24T02:00:00.442Z,6.90
2023-04-24T02:02:29.946Z,6.88
2023-04-24T02:04:58.242Z,6.84
2023-04-24T02:07:26.228Z,5.95
2023-04-24T02:09:54.106Z,6.77
2023-04-24T02:12:22.246Z,6.76
2023-04-24T02:14:51.761Z,6.71
2023-04-24T02:17:20.231Z,6.66
2023-04-24T02:19:48.325Z,6.63
2023-04-24T02:22:16.220Z,6.59
2023-04-24T02:24:44.189Z,6.55
2023-04-24T02:27:12.871Z,6.51
2023-04-24T02:29:40.977Z,6.49
2023-04-24T02:32:13.041Z,6.48
2023-04-24T02:34:41.156Z,6.51
2023-04-24T02:37:09.221Z,6.36
2023-04-24T02:39:37.081Z,6.50
2023-04-24T02:42:05.227Z,6.50
2023-04-24T02:44:33.315Z,6.48
2023-04-24T02:47:01.240Z,6.44
2023-04-24T02:49:30.654Z,6.41
2023-04-24T02:51:58.518Z,6.37
2023-04-24T02:54:26.854Z,6.36
2023-04-24T02:56:54.925Z,6.30
2023-04-24T02:59:22.751Z,6.23
2023-04-24T03:01:50.633Z,6.16
2023-04-24T03:04:21.507Z,6.10
2023-04-24T03:06:52.809Z,6.11
2023-04-24T03:09:20.894Z,6.08
2023-04-24T03:11:49.732Z,6.07
2023-04-24T03:14:17.630Z,6.07
2023-04-24T03:16:48.499Z,6.07
2023-04-24T03:19:16.465Z,5.96
2023-04-24T03:21:49.077Z,6.08
2023-04-24T03:24:18.695Z,6.05
2023-04-24T03:26:46.576Z,6.03
2023-04-24T03:29:14.395Z,6.04
2023-04-24T03:31:42.406Z,6.03
2023-04-24T03:34:11.211Z,5.99
2023-04-24T03:36:39.051Z,5.95
2023-04-24T03:39:07.032Z,5.93
2023-04-24T03:41:36.562Z,5.96
2023-04-24T03:44:04.493Z,5.97
2023-04-24T03:46:32.591Z,5.96
2023-04-24T03:49:00.461Z,5.90
2023-04-24T03:51:28.953Z,5.90
2023-04-24T03:53:58.226Z,5.83
2023-04-24T03:56:26.066Z,5.95
2023-04-24T03:58:55.279Z,5.95
2023-04-24T04:01:24.335Z,5.94
2023-04-24T04:03:52.433Z,5.93
2023-04-24T04:06:20.495Z,5.91
2023-04-24T04:08:48.495Z,5.91
2023-04-24T04:11:16.349Z,5.93
2023-04-24T04:13:44.191Z,5.93
2023-04-24T04:16:13.847Z,5.86
2023-04-24T04:18:41.757Z,5.90
2023-04-24T04:21:09.579Z,5.94
2023-04-24T04:23:37.791Z,5.14
2023-04-24T04:26:06.210Z,6.00
2023-04-24T04:28:34.158Z,5.92
2023-04-24T04:31:02.341Z,5.87
2023-04-24T04:33:33.132Z,6.00
2023-04-24T04:36:02.204Z,6.01
2023-04-24T04:38:31.732Z,6.03
2023-04-24T04:40:59.837Z,6.04
2023-04-24T04:43:29.289Z,6.06
2023-04-24T04:45:57.521Z,6.06
2023-04-24T04:48:25.503Z,6.06
2023-04-24T04:50:54.779Z,6.05
2023-04-24T04:53:22.787Z,5.99
2023-04-24T04:55:50.684Z,5.89
2023-04-24T04:58:18.584Z,6.01
2023-04-24T05:00:47.334Z,5.83
2023-04-24T05:05:45.959Z,5.98
2023-04-24T05:10:46.144Z,5.71
2023-04-24T05:13:14.276Z,5.93
2023-04-24T05:15:42.406Z,5.93
2023-04-24T05:18:10.554Z,5.84
2023-04-24T05:20:38.485Z,5.86
2023-04-24T05:23:06.536Z,5.87
2023-04-24T05:25:36.620Z,5.77
2023-04-24T05:28:04.495Z,5.93
2023-04-24T05:30:32.501Z,5.93
2023-04-24T05:33:01.913Z,5.90
2023-04-24T05:35:30.423Z,5.90
2023-04-24T05:37:58.406Z,5.92
2023-04-24T05:40:26.413Z,5.95
2023-04-24T05:42:57.855Z,5.94
2023-04-24T05:45:26.266Z,5.87
2023-04-24T05:47:54.470Z,5.80
2023-04-24T05:50:22.671Z,5.72
2023-04-24T05:52:50.710Z,5.68
2023-04-24T05:55:19.623Z,5.75
2023-04-24T05:57:48.261Z,5.78
2023-04-24T06:00:19.824Z,5.69
2023-04-24T06:02:48.356Z,5.69
2023-04-24T06:05:16.959Z,5.74
2023-04-24T06:07:44.900Z,5.78
2023-04-24T06:10:13.016Z,5.76
2023-04-24T06:12:40.856Z,5.81
2023-04-24T06:15:09.999Z,5.77
2023-04-24T06:17:39.501Z,5.75
2023-04-24T06:20:09.139Z,5.81
2023-04-24T06:22:37.509Z,5.80
2023-04-24T06:25:06.140Z,5.73
2023-04-24T06:27:33.962Z,5.73
2023-04-24T06:30:02.005Z,5.75
2023-04-24T06:32:30.000Z,5.82
2023-04-24T06:34:59.642Z,5.79
2023-04-24T06:37:28.146Z,5.95
2023-04-24T06:39:56.114Z,5.83
2023-04-24T06:42:25.707Z,5.93
2023-04-24T06:44:53.741Z,5.93
2023-04-24T06:47:21.842Z,6.02
2023-04-24T06:49:51.897Z,6.04
2023-04-24T06:52:21.534Z,6.04
2023-04-24T06:54:49.726Z,5.26
2023-04-24T06:57:18.200Z,6.12
2023-04-24T06:59:46.260Z,5.98
2023-04-24T07:02:14.487Z,5.94
2023-04-24T07:04:42.880Z,6.01
2023-04-24T07:07:14.254Z,5.99
2023-04-24T07:09:45.591Z,5.96
2023-04-24T07:12:14.583Z,5.97
2023-04-24T07:14:42.917Z,5.93
2023-04-24T07:17:11.203Z,5.97
2023-04-24T07:19:39.040Z,6.06
2023-04-24T07:22:08.475Z,6.17
2023-04-24T07:24:36.443Z,6.18
2023-04-24T07:27:06.824Z,6.22
2023-04-24T07:29:34.849Z,5.40
2023-04-24T07:32:04.185Z,6.25
2023-04-24T07:34:32.335Z,6.28
2023-04-24T07:37:00.234Z,6.25
2023-04-24T07:39:28.799Z,6.28
2023-04-24T07:41:56.696Z,6.29
2023-04-24T07:44:26.129Z,5.97
2023-04-24T07:46:54.100Z,6.26
2023-04-24T07:49:22.050Z,6.24
2023-04-24T07:51:51.477Z,6.24
2023-04-24T07:54:19.446Z,6.25
2023-04-24T07:56:47.374Z,6.18
2023-04-24T07:59:15.542Z,6.34
2023-04-24T08:01:44.918Z,6.38
2023-04-24T08:04:12.936Z,6.44
2023-04-24T08:06:41.004Z,6.46
2023-04-24T08:09:09.306Z,6.44
2023-04-24T08:11:37.314Z,6.46
2023-04-24T08:14:05.236Z,6.68
2023-04-24T08:16:34.748Z,6.77
2023-04-24T08:19:04.050Z,6.82
2023-04-24T08:21:31.962Z,6.75
2023-04-24T08:24:00.043Z,6.84
2023-04-24T08:26:27.961Z,6.84
2023-04-24T08:28:55.957Z,6.77
2023-04-24T08:31:26.094Z,6.74
2023-04-24T08:33:53.990Z,6.73
2023-04-24T08:36:28.192Z,6.74
2023-04-24T08:39:01.164Z,6.66
2023-04-24T08:41:29.709Z,6.79
2023-04-24T08:43:59.178Z,6.92
2023-04-24T08:46:27.674Z,7.01
2023-04-24T08:48:55.708Z,7.05
2023-04-24T08:51:26.584Z,7.05
2023-04-24T08:53:56.866Z,7.02
2023-04-24T08:56:25.259Z,6.81
2023-04-24T08:58:53.552Z,6.92
2023-04-24T09:01:22.232Z,7.00
2023-04-24T09:03:51.418Z,7.06
2023-04-24T09:06:21.404Z,7.17
2023-04-24T09:08:57.131Z,7.25
2023-04-24T09:11:27.175Z,7.20
2023-04-24T09:13:55.574Z,7.26
2023-04-24T09:16:25.480Z,7.16
2023-04-24T09:18:53.793Z,7.31
2023-04-24T09:21:23.161Z,7.11
2023-04-24T09:24:02.128Z,7.44
2023-04-24T09:26:34.294Z,7.47
2023-04-24T09:29:02.172Z,7.35
2023-04-24T09:31:31.707Z,7.31
2023-04-24T09:34:02.214Z,7.31
2023-04-24T09:36:34.070Z,7.34
2023-04-24T09:39:05.525Z,7.41
2023-04-24T09:41:34.888Z,7.42
2023-04-24T09:44:13.721Z,7.34
2023-04-24T09:46:43.213Z,7.36
2023-04-24T09:49:15.048Z,7.39
2023-04-24T09:51:44.786Z,7.01
2023-04-24T09:54:21.994Z,7.67
2023-04-24T09:56:51.773Z,7.83
2023-04-24T09:59:21.694Z,7.80
2023-04-24T10:01:51.824Z,7.87
2023-04-24T10:04:21.440Z,7.87
2023-04-24T10:06:51.160Z,7.91
2023-04-24T10:09:21.815Z,7.92
2023-04-24T10:11:52.842Z,7.88
2023-04-24T10:14:23.201Z,8.06
2023-04-24T10:16:52.056Z,8.09
2023-04-24T10:19:21.282Z,8.09
2023-04-24T10:21:49.583Z,8.13
2023-04-24T10:24:18.948Z,8.14
2023-04-24T10:26:49.568Z,8.16
2023-04-24T10:29:20.014Z,8.15
2023-04-24T10:31:48.323Z,8.12
2023-04-24T10:34:19.002Z,8.19
2023-04-24T10:36:51.207Z,8.24
2023-04-24T10:39:20.769Z,8.31
2023-04-24T10:41:58.938Z,8.24
2023-04-24T10:44:27.895Z,8.37
2023-04-24T10:46:57.738Z,8.33
2023-04-24T10:49:31.086Z,8.28
2023-04-24T10:52:03.805Z,8.07
2023-04-24T10:54:37.077Z,8.04
2023-04-24T10:57:33.982Z,7.92
2023-04-24T11:00:23.299Z,7.92
2023-04-24T11:02:53.704Z,7.96
2023-04-24T11:05:23.029Z,7.55
2023-04-24T11:08:14.421Z,7.99
2023-04-24T11:10:45.853Z,7.64
2023-04-24T11:13:18.279Z,7.73
2023-04-24T11:15:46.352Z,7.73
2023-04-24T11:18:17.815Z,7.69
2023-04-24T11:20:46.748Z,7.89
2023-04-24T11:23:16.073Z,7.75
2023-04-24T11:25:44.025Z,7.64
2023-04-24T11:28:18.639Z,7.93
2023-04-24T11:30:46.532Z,7.95
2023-04-24T11:33:22.194Z,7.86
2023-04-24T11:35:50.148Z,7.68
2023-04-24T11:38:24.648Z,7.88
2023-04-24T11:40:54.466Z,7.85
2023-04-24T11:43:24.636Z,7.77
2023-04-24T11:45:52.539Z,7.70
2023-04-24T11:48:23.647Z,7.69
2023-04-24T11:50:52.550Z,7.70
2023-04-24T11:53:21.628Z,7.66
2023-04-24T11:55:49.698Z,7.49
2023-04-24T11:58:22.702Z,7.41
2023-04-24T12:00:58.345Z,7.37
2023-04-24T12:03:26.550Z,7.39
2023-04-24T12:05:55.004Z,7.42
2023-04-24T12:08:29.871Z,7.31
2023-04-24T12:10:58.016Z,7.29
2023-04-24T12:13:27.746Z,7.39
2023-04-24T12:15:57.201Z,7.44
2023-04-24T12:18:25.896Z,7.48
2023-04-24T12:20:53.899Z,7.47
2023-04-24T12:23:36.891Z,7.43
2023-04-24T12:26:06.567Z,7.55
2023-04-24T12:28:38.579Z,7.05
2023-04-24T12:31:08.767Z,7.62
2023-04-24T12:33:37.951Z,7.62
2023-04-24T12:36:06.543Z,7.60
2023-04-24T12:38:41.173Z,7.70
2023-04-24T12:41:10.816Z,7.56
2023-04-24T12:43:39.623Z,7.52
2023-04-24T12:46:08.980Z,7.79
2023-04-24T12:48:37.280Z,7.87
2023-04-24T12:51:05.577Z,7.87
2023-04-24T12:53:33.432Z,7.85
2023-04-24T12:56:01.760Z,7.90
2023-04-24T12:58:29.937Z,7.82
2023-04-24T13:00:58.156Z,7.96
2023-04-24T13:03:27.784Z,7.89
2023-04-24T13:05:55.835Z,7.69
2023-04-24T13:08:23.671Z,7.65
2023-04-24T13:10:53.123Z,7.52
2023-04-24T13:13:21.002Z,7.18
2023-04-24T13:15:48.815Z,7.36
2023-04-24T13:18:16.959Z,7.27
2023-04-24T13:20:48.460Z,6.98
2023-04-24T13:23:16.504Z,7.16
2023-04-24T13:25:44.500Z,7.02
2023-04-24T13:28:12.344Z,6.92
2023-04-24T13:30:40.436Z,6.92
2023-04-24T13:33:08.471Z,6.92
2023-04-24T13:35:36.353Z,6.95
2023-04-24T13:38:07.569Z,6.98
2023-04-24T13:40:35.788Z,7.00
2023-04-24T13:43:03.922Z,6.98
2023-04-24T13:45:31.818Z,6.93
2023-04-24T13:48:00.213Z,6.85
2023-04-24T13:50:28.058Z,6.81
2023-04-24T13:52:57.736Z,6.80
2023-04-24T13:55:27.367Z,6.81
2023-04-24T13:57:56.171Z,6.75
2023-04-24T14:00:24.597Z,6.73
2023-04-24T14:02:52.785Z,6.75
2023-04-24T14:05:22.697Z,6.75
2023-04-24T14:07:50.652Z,6.72
2023-04-24T14:10:18.716Z,6.69
2023-04-24T14:12:47.968Z,6.79
2023-04-24T14:15:16.425Z,6.84
2023-04-24T14:17:44.398Z,6.86
2023-04-24T14:20:14.434Z,6.87
2023-04-24T14:22:42.402Z,6.80
2023-04-24T14:25:11.330Z,6.80
2023-04-24T14:27:39.351Z,6.12
2023-04-24T14:30:10.171Z,6.77
2023-04-24T14:32:38.188Z,6.87
2023-04-24T14:35:07.130Z,6.80
2023-04-24T14:37:35.284Z,6.80
2023-04-24T14:40:15.792Z,6.82
2023-04-24T14:42:48.866Z,6.64
2023-04-24T14:45:18.275Z,6.44
2023-04-24T14:47:46.597Z,6.44
2023-04-24T14:50:14.614Z,6.40
2023-04-24T14:52:42.628Z,6.39
2023-04-24T14:55:11.049Z,6.41
2023-04-24T14:57:38.991Z,6.40
2023-04-24T15:00:10.344Z,6.42
2023-04-24T15:02:43.101Z,6.44
2023-04-24T15:05:11.682Z,6.38
2023-04-24T15:07:39.643Z,6.31
2023-04-24T15:10:08.778Z,6.34
2023-04-24T15:12:36.951Z,6.21
2023-04-24T15:15:05.166Z,6.13
2023-04-24T15:17:33.159Z,6.04
2023-04-24T15:20:03.834Z,5.98
2023-04-24T15:22:31.708Z,5.87
2023-04-24T15:24:59.873Z,5.94
2023-04-24T15:27:28.056Z,5.90
2023-04-24T15:29:55.973Z,5.83
2023-04-24T15:32:23.962Z,5.66
2023-04-24T15:35:04.923Z,5.82
2023-04-24T15:37:36.868Z,5.81
2023-04-24T15:40:06.699Z,5.79
2023-04-24T15:42:34.550Z,5.53
2023-04-24T15:45:02.528Z,5.66
2023-04-24T15:47:30.738Z,5.76
2023-04-24T15:49:59.479Z,5.60
2023-04-24T15:52:27.679Z,5.71
2023-04-24T15:54:57.332Z,5.59
2023-04-24T15:57:25.218Z,5.83
2023-04-24T15:59:53.244Z,5.85
2023-04-24T16:02:21.410Z,5.84
2023-04-24T16:04:51.344Z,5.85
2023-04-24T16:07:20.029Z,5.85
2023-04-24T16:09:48.469Z,5.79
2023-04-24T16:12:17.740Z,5.74
2023-04-24T16:14:45.882Z,5.67
2023-04-24T16:17:14.456Z,5.63
2023-04-24T16:19:42.331Z,5.63
2023-04-24T16:22:10.347Z,4.69
2023-04-24T16:24:38.377Z,5.51
2023-04-24T16:27:06.494Z,5.50
2023-04-24T16:29:35.774Z,5.43
2023-04-24T16:32:03.664Z,5.11
2023-04-24T16:34:31.514Z,5.39
2023-04-24T16:36:59.789Z,5.33
2023-04-24T16:39:28.195Z,5.29
2023-04-24T16:41:58.988Z,5.30
2023-04-24T16:44:27.786Z,5.33
2023-04-24T16:46:57.159Z,5.34
2023-04-24T16:49:25.157Z,5.32
2023-04-24T16:51:53.238Z,5.27
2023-04-24T16:54:21.080Z,5.26
2023-04-24T16:56:48.970Z,5.30
2023-04-24T16:59:17.269Z,5.33
2023-04-24T17:01:45.525Z,5.32
2023-04-24T17:04:14.916Z,5.10
2023-04-24T17:06:43.144Z,5.19
2023-04-24T17:09:12.190Z,5.18
2023-04-24T17:11:40.045Z,5.15
2023-04-24T17:14:08.023Z,5.15
2023-04-24T17:16:36.312Z,5.09
2023-04-24T17:19:04.519Z,5.08
2023-04-24T17:21:34.243Z,5.05
2023-04-24T17:24:02.053Z,5.08
2023-04-24T17:26:32.291Z,5.07
2023-04-24T17:29:00.513Z,4.79
2023-04-24T17:31:28.392Z,5.03
2023-04-24T17:33:56.335Z,5.00
2023-04-24T17:36:24.252Z,4.98
2023-04-24T17:38:53.641Z,4.78
2023-04-24T17:41:21.766Z,4.92
2023-04-24T17:43:49.655Z,4.97
2023-04-24T17:46:17.763Z,4.58
2023-04-24T17:48:47.623Z,4.98
2023-04-24T17:51:17.031Z,4.86
2023-04-24T17:53:44.835Z,4.96
2023-04-24T17:56:14.052Z,4.92
2023-04-24T17:58:42.068Z,4.83
2023-04-24T18:01:09.946Z,4.93
2023-04-24T18:03:38.539Z,4.94
2023-04-24T18:06:07.276Z,4.93
2023-04-24T18:08:35.847Z,4.93
2023-04-24T18:11:04.308Z,4.96
2023-04-24T18:13:33.709Z,4.97
2023-04-24T18:16:01.814Z,4.99
2023-04-24T18:18:29.713Z,4.99
2023-04-24T18:20:57.810Z,4.96
2023-04-24T18:23:25.748Z,4.93
2023-04-24T18:25:53.566Z,4.92
2023-04-24T18:28:21.486Z,4.91
2023-04-24T18:30:50.885Z,4.91
2023-04-24T18:33:19.106Z,4.89
2023-04-24T18:35:47.122Z,4.81
2023-04-24T18:38:15.093Z,4.83
2023-04-24T18:40:43.315Z,4.87
2023-04-24T18:43:11.447Z,4.87
2023-04-24T18:45:39.397Z,4.82
2023-04-24T18:48:08.704Z,4.88
2023-04-24T18:50:38.904Z,4.54
2023-04-24T18:53:07.289Z,4.95
2023-04-24T18:55:35.950Z,4.91
2023-04-24T18:58:03.966Z,5.01
2023-04-24T19:00:31.884Z,5.04
2023-04-24T19:02:59.802Z,5.05
2023-04-24T19:05:29.225Z,5.05
2023-04-24T19:07:57.178Z,5.04
2023-04-24T19:10:25.746Z,5.05
2023-04-24T19:12:56.673Z,4.79
2023-04-24T19:15:25.145Z,4.93
2023-04-24T19:17:53.301Z,4.97
2023-04-24T19:20:21.285Z,4.98
2023-04-24T19:22:50.901Z,4.99
2023-04-24T19:25:19.008Z,4.95
2023-04-24T19:27:46.971Z,4.99
2023-04-24T19:30:15.041Z,4.89
2023-04-24T19:32:42.912Z,5.01
2023-04-24T19:35:11.090Z,5.00
2023-04-24T19:37:39.784Z,4.94
2023-04-24T19:40:11.209Z,4.89
2023-04-24T19:42:44.000Z,4.94
2023-04-24T19:45:13.418Z,4.63
2023-04-24T19:47:41.477Z,5.00
2023-04-24T19:50:10.047Z,4.87
2023-04-24T19:52:37.899Z,5.02
2023-04-24T19:55:06.267Z,5.00
2023-04-24T19:57:35.496Z,4.97
2023-04-24T20:00:04.668Z,4.13
2023-04-24T20:02:32.826Z,4.93
2023-04-24T20:05:00.956Z,4.92
2023-04-24T20:07:29.094Z,4.92
2023-04-24T20:09:56.997Z,4.93
2023-04-24T20:12:24.833Z,4.95
2023-04-24T20:14:55.308Z,4.86
2023-04-24T20:17:23.130Z,4.93
2023-04-24T20:19:51.050Z,4.86
2023-04-24T20:22:19.035Z,4.92
2023-04-24T20:24:47.793Z,4.92
2023-04-24T20:27:15.762Z,4.88
2023-04-24T20:29:43.909Z,4.87
2023-04-24T20:32:13.148Z,4.78
2023-04-24T20:34:41.028Z,4.87
2023-04-24T20:37:09.006Z,4.81
2023-04-24T20:39:36.950Z,4.88
2023-04-24T20:42:05.056Z,4.48
2023-04-24T20:44:33.197Z,4.89
2023-04-24T20:47:01.311Z,4.89
2023-04-24T20:49:30.699Z,4.92
2023-04-24T20:51:59.185Z,4.79
2023-04-24T20:54:27.139Z,4.90
2023-04-24T20:56:55.104Z,4.92
2023-04-24T20:59:23.162Z,4.92
2023-04-24T21:01:51.339Z,4.93
2023-04-24T21:04:19.357Z,4.97
2023-04-24T21:06:48.933Z,4.93
2023-04-24T21:09:16.855Z,4.97
2023-04-24T21:11:44.916Z,4.98
2023-04-24T21:14:13.211Z,4.94
2023-04-24T21:16:41.223Z,4.98
2023-04-24T21:19:09.129Z,4.88
2023-04-24T21:21:37.063Z,5.01
2023-04-24T21:24:06.775Z,5.03
2023-04-24T21:26:35.437Z,4.82
2023-04-24T21:29:03.483Z,4.69
2023-04-24T21:31:31.471Z,5.02
2023-04-24T21:33:59.418Z,4.97
2023-04-24T21:36:27.284Z,5.05
2023-04-24T21:38:55.442Z,5.06
2023-04-24T21:41:25.511Z,5.04
2023-04-24T21:43:53.755Z,5.02
2023-04-24T21:46:21.789Z,4.99
2023-04-24T21:48:49.778Z,4.98
2023-04-24T21:51:18.195Z,4.98
2023-04-24T21:53:46.143Z,4.96
2023-04-24T21:56:14.276Z,4.95
2023-04-24T21:58:44.052Z,4.93
2023-04-24T22:01:12.166Z,4.94
2023-04-24T22:03:40.350Z,4.91
2023-04-24T22:06:08.578Z,4.95
2023-04-24T22:08:36.641Z,4.93
2023-04-24T22:11:07.297Z,4.86
2023-04-24T22:13:43.101Z,4.80
2023-04-24T22:16:11.154Z,4.87
2023-04-24T22:18:46.496Z,4.89
2023-04-24T22:21:15.945Z,4.88
2023-04-24T22:23:43.863Z,4.89
2023-04-24T22:26:11.724Z,4.86
2023-04-24T22:28:39.921Z,4.86
2023-04-24T22:31:09.399Z,4.89
2023-04-24T22:33:37.274Z,4.88
2023-04-24T22:36:05.919Z,4.87
2023-04-24T22:38:33.738Z,4.86
2023-04-24T22:41:01.703Z,4.84
2023-04-24T22:43:29.937Z,4.84
2023-04-24T22:45:57.776Z,4.82
2023-04-24T22:48:27.101Z,4.72
2023-04-24T22:50:56.083Z,4.82
2023-04-24T22:53:23.954Z,4.81
2023-04-24T22:55:51.790Z,4.79
2023-04-24T22:58:19.836Z,4.77
2023-04-24T23:00:47.739Z,4.75
2023-04-24T23:03:15.706Z,4.75
2023-04-24T23:05:45.542Z,4.54
2023-04-24T23:08:13.287Z,4.62
2023-04-24T23:10:41.109Z,4.78
2023-04-24T23:13:09.205Z,4.79
2023-04-24T23:15:38.940Z,4.81
2023-04-24T23:18:07.094Z,4.79
2023-04-24T23:20:35.210Z,4.75
2023-04-24T23:23:04.400Z,4.74
2023-04-24T23:25:33.185Z,4.71
2023-04-24T23:28:01.246Z,4.73
2023-04-24T23:30:29.897Z,4.74
2023-04-24T23:32:57.874Z,4.79
2023-04-24T23:35:26.159Z,4.74
2023-04-24T23:37:54.023Z,4.79
2023-04-24T23:40:23.541Z,4.67
2023-04-24T23:42:59.701Z,4.47
2023-04-24T23:45:34.258Z,4.64
2023-04-24T23:48:03.286Z,4.61
2023-04-24T23:50:31.243Z,4.60
2023-04-24T23:52:59.158Z,4.61
2023-04-24T23:55:28.725Z,4.61
2023-04-24T23:57:56.572Z,4.54
